Time;durP1;ratioP1;P1;durP2;ratioP2;P2;SDS_P1;SDS_P2;PMS_P1;PMS_P2;Temp;Humidity;BMP_temperature;BMP_pressure;BME280_temperature;BME280_humidity;BME280_pressure;Samples;Min_cycle;Max_cycle;Signal;HPM_P1;HPM_P2
2022/07/18 00:00:16;;;;;;;13.13;3.85;;;;;;;26.68;52.09;100685.03;2099496;28;20116;-73
2022/07/18 00:01:39;;;;;;;11.63;4.45;;;;;;;26.69;51.73;100683.19;2093541;28;20052;-73
2022/07/18 00:03:02;;;;;;;7.40;3.40;;;;;;;26.68;51.85;100679.63;2099113;28;20064;-73
2022/07/18 00:04:23;;;;;;;7.32;3.25;;;;;;;26.68;51.63;100687.75;2102218;28;20556;-73
2022/07/18 00:05:46;;;;;;;7.05;3.78;;;;;;;26.68;51.86;100679.63;2101848;28;20040;-73
2022/07/18 00:07:10;;;;;;;15.23;4.10;;;;;;;26.67;51.78;100672.44;2102074;28;20040;-73
2022/07/18 00:08:32;;;;;;;11.63;3.85;;;;;;;26.68;51.61;100678.72;2102025;28;20051;-73
2022/07/18 00:09:57;;;;;;;23.05;4.53;;;;;;;26.69;51.58;100681.38;2104276;28;20084;-73
2022/07/18 00:11:18;;;;;;;8.93;3.80;;;;;;;26.69;51.42;100686.78;2102092;28;20457;-73
2022/07/18 00:12:41;;;;;;;9.02;3.10;;;;;;;26.68;51.19;100693.16;2093664;28;20369;-73
2022/07/18 00:14:04;;;;;;;11.07;3.80;;;;;;;26.68;51.47;100695.88;2099410;28;20498;-72
2022/07/18 00:15:26;;;;;;;7.75;3.15;;;;;;;26.69;51.39;100691.31;2104294;28;20052;-72
2022/07/18 00:16:48;;;;;;;9.00;3.67;;;;;;;26.67;51.42;100691.41;2102040;28;20086;-73
2022/07/18 00:18:11;;;;;;;9.55;3.97;;;;;;;26.66;51.45;100689.66;2101799;28;20141;-73
2022/07/18 00:19:34;;;;;;;11.65;3.78;;;;;;;26.66;51.28;100684.22;2102058;28;20032;-73
2022/07/18 00:20:55;;;;;;;13.40;3.50;;;;;;;26.65;51.55;100689.75;2093488;28;20064;-74
2022/07/18 00:22:18;;;;;;;13.20;3.78;;;;;;;26.65;51.29;100692.47;2098917;28;20036;-73
2022/07/18 00:23:39;;;;;;;12.73;3.65;;;;;;;26.65;51.39;100690.59;2102959;28;20454;-73
2022/07/18 00:25:04;;;;;;;7.22;3.28;;;;;;;26.65;51.49;100695.16;2103495;28;20048;-73
2022/07/18 00:26:25;;;;;;;9.13;2.97;;;;;;;26.66;51.28;100695.06;2103716;28;20048;-73
2022/07/18 00:27:48;;;;;;;8.60;4.05;;;;;;;26.67;51.17;100695.94;2095071;28;20131;-73
2022/07/18 00:29:09;;;;;;;11.68;3.75;;;;;;;26.67;51.25;100694.09;2100507;28;20043;-73
2022/07/18 00:30:32;;;;;;;11.55;4.10;;;;;;;26.68;51.09;100705.81;2103389;28;20036;-73
2022/07/18 00:31:53;;;;;;;9.23;4.05;;;;;;;26.69;51.17;100703.03;2103636;28;20052;-73
2022/07/18 00:33:15;;;;;;;8.25;3.42;;;;;;;26.67;51.33;100704.94;2103262;28;20457;-73
2022/07/18 00:34:37;;;;;;;9.80;3.20;;;;;;;26.67;51.53;100704.94;2103464;28;20048;-73
2022/07/18 00:35:59;;;;;;;8.32;3.65;;;;;;;26.66;51.49;100699.59;2094822;28;20033;-73
2022/07/18 00:37:22;;;;;;;11.07;4.25;;;;;;;26.64;51.65;100699.69;2100731;28;20506;-73
2022/07/18 00:38:45;;;;;;;9.23;3.17;;;;;;;26.63;51.34;100695.25;2103392;28;20673;-73
2022/07/18 00:40:10;;;;;;;9.00;3.58;;;;;;;26.64;51.48;100705.13;2106271;28;20144;-72
2022/07/18 00:41:32;;;;;;;10.23;3.50;;;;;;;26.62;51.81;100703.44;2103659;28;20683;-73
2022/07/18 00:42:55;;;;;;;15.85;4.28;;;;;;;26.60;51.64;100700.81;2102925;28;20056;-73
2022/07/18 00:44:18;;;;;;;7.95;3.55;;;;;;;26.60;51.85;100692.66;2103342;28;20083;-73
2022/07/18 00:45:40;;;;;;;8.48;3.47;;;;;;;26.58;51.72;100698.16;2103478;28;20048;-73
2022/07/18 00:47:03;;;;;;;9.75;3.40;;;;;;;26.57;51.93;100699.16;2097603;28;20036;-74
2022/07/18 00:48:25;;;;;;;9.65;3.58;;;;;;;26.56;52.16;100691.09;2103379;28;20058;-74
2022/07/18 00:49:48;;;;;;;8.43;3.50;;;;;;;26.54;52.00;100699.28;2111355;28;20082;-73
2022/07/18 00:51:11;;;;;;;14.57;4.05;;;;;;;26.54;52.26;100693.88;2111986;28;20415;-73
2022/07/18 00:52:33;;;;;;;8.88;3.75;;;;;;;26.54;52.28;100701.13;2111888;28;20052;-72
2022/07/18 00:53:55;;;;;;;9.02;4.07;;;;;;;26.53;52.49;100702.06;2111549;28;20055;-73
2022/07/18 00:55:19;;;;;;;12.80;3.97;;;;;;;26.53;52.38;100704.78;2111864;28;20491;-73
2022/07/18 00:56:43;;;;;;;13.10;3.47;;;;;;;26.52;52.36;100705.72;2106159;28;20929;-73
2022/07/18 00:58:06;;;;;;;11.52;3.40;;;;;;;26.51;52.61;100709.41;2108928;28;20071;-73
2022/07/18 01:02:45;;;;;;;13.70;3.97;;;;;;;26.55;52.57;100713.72;2105620;28;20055;-73
2022/07/18 01:04:06;;;;;;;12.30;3.33;;;;;;;26.54;52.49;100706.53;2108453;28;20456;-73
2022/07/18 01:05:30;;;;;;;12.13;3.70;;;;;;;26.54;52.46;100707.41;2103437;28;20486;-73
2022/07/18 01:06:53;;;;;;;14.40;3.80;;;;;;;26.55;52.62;100711.88;2109131;28;20051;-73
2022/07/18 01:08:14;;;;;;;12.13;3.55;;;;;;;26.54;52.64;100706.53;2111515;28;20067;-73
2022/07/18 01:09:37;;;;;;;12.35;4.07;;;;;;;26.52;52.65;100705.72;2114445;28;20074;-73
2022/07/18 01:11:01;;;;;;;10.27;3.78;;;;;;;26.51;52.51;100707.59;2102975;28;20089;-73
2022/07/18 01:12:23;;;;;;;11.82;3.72;;;;;;;26.48;52.48;100702.31;2111492;28;20039;-73
2022/07/18 01:13:46;;;;;;;10.25;4.07;;;;;;;26.47;52.88;100708.69;2111577;28;20143;-73
2022/07/18 01:15:09;;;;;;;9.38;3.65;;;;;;;26.47;52.88;100707.78;2111848;28;20055;-73
2022/07/18 01:16:32;;;;;;;8.32;3.95;;;;;;;26.46;52.98;100706.03;2114125;28;20473;-73
2022/07/18 01:17:55;;;;;;;7.63;3.53;;;;;;;26.45;53.05;100704.31;2111395;28;20464;-73
2022/07/18 01:19:17;;;;;;;12.43;3.92;;;;;;;26.45;53.18;100720.56;2111724;28;20158;-73
2022/07/18 01:20:41;;;;;;;9.98;3.35;;;;;;;26.43;53.29;100715.22;2103073;28;20568;-73
2022/07/18 01:22:04;;;;;;;11.55;3.92;;;;;;;26.41;53.16;100711.69;2109156;28;20052;-73
2022/07/18 01:23:27;;;;;;;6.70;3.35;;;;;;;26.39;53.16;100704.59;2111462;28;20071;-73
2022/07/18 01:24:50;;;;;;;11.45;3.85;;;;;;;26.38;53.19;100706.47;2113705;28;20052;-72
2022/07/18 01:26:13;;;;;;;7.90;3.58;;;;;;;26.37;53.33;100703.81;2103303;28;20557;-73
2022/07/18 01:27:36;;;;;;;19.98;4.60;;;;;;;26.38;53.23;100708.28;2100898;28;20071;-73
2022/07/18 01:28:59;;;;;;;9.07;3.53;;;;;;;26.37;53.53;100706.53;2100406;28;20040;-73
2022/07/18 01:30:20;;;;;;;9.05;3.47;;;;;;;26.36;53.49;100704.78;2111722;28;20057;-72
2022/07/18 01:31:42;;;;;;;11.82;3.63;;;;;;;26.36;53.28;100710.19;2102731;28;20079;-74
2022/07/18 01:33:05;;;;;;;10.48;3.80;;;;;;;26.35;53.27;100713.84;2102809;28;20052;-73
2022/07/18 01:34:27;;;;;;;7.90;3.60;;;;;;;26.34;53.26;100715.66;2099904;28;20071;-73
2022/07/18 01:35:51;;;;;;;14.98;3.70;;;;;;;26.32;53.35;100714.00;2108550;28;20047;-73
2022/07/18 01:37:15;;;;;;;12.75;5.45;;;;;;;26.31;53.47;100712.25;2111394;28;20425;-74
2022/07/18 01:38:38;;;;;;;7.28;3.13;;;;;;;26.29;53.81;100709.63;2111709;28;20084;-74
2022/07/18 01:40:01;;;;;;;8.93;3.65;;;;;;;26.27;53.66;100702.50;2111490;28;20136;-73
2022/07/18 01:41:24;;;;;;;16.25;3.95;;;;;;;26.27;53.91;100707.94;2111176;28;20044;-73
2022/07/18 01:42:46;;;;;;;14.32;4.93;;;;;;;26.27;54.09;100702.50;2111472;28;20446;-74
2022/07/18 01:44:09;;;;;;;12.27;3.22;;;;;;;26.25;54.20;100701.72;2111437;28;20551;-73
2022/07/18 01:45:30;;;;;;;7.90;3.92;;;;;;;26.25;54.30;100701.72;2111420;28;20142;-73
2022/07/18 01:46:53;;;;;;;14.40;4.60;;;;;;;26.26;54.27;100703.47;2111307;28;20137;-73
2022/07/18 01:48:16;;;;;;;9.85;4.63;;;;;;;26.25;54.39;100697.19;2109816;28;20131;-73
2022/07/18 01:49:40;;;;;;;9.25;4.50;;;;;;;26.25;54.39;100694.50;2102804;28;20481;-73
2022/07/18 01:51:04;;;;;;;8.30;3.40;;;;;;;26.24;54.61;100690.03;2103183;28;20043;-74
2022/07/18 01:52:25;;;;;;;10.27;3.78;;;;;;;26.24;54.56;100697.22;2102911;28;20086;-73
2022/07/18 01:53:58;;;;;;;11.15;3.78;;;;;;;26.23;54.67;100692.78;2102505;28;20047;-74
2022/07/18 01:55:19;;;;;;;9.63;3.70;;;;;;;26.20;54.75;100691.97;2104615;28;20047;-73
2022/07/18 01:56:41;;;;;;;11.07;4.07;;;;;;;26.21;54.44;100700.97;2102666;28;20048;-74
2022/07/18 01:58:05;;;;;;;9.52;3.63;;;;;;;26.19;54.37;100698.31;2102770;28;20044;-73
2022/07/18 01:59:27;;;;;;;11.50;4.13;;;;;;;26.19;54.30;100690.19;2103085;28;20832;-73
2022/07/18 02:00:50;;;;;;;12.93;3.88;;;;;;;26.18;54.49;100702.00;2102498;28;20064;-73
2022/07/18 02:02:11;;;;;;;10.55;4.32;;;;;;;26.17;54.30;100693.97;2102707;28;20047;-73
2022/07/18 02:03:34;;;;;;;11.65;4.05;;;;;;;26.15;54.37;100698.56;2102848;28;20071;-73
2022/07/18 02:05:02;;;;;;;13.68;4.25;;;;;;;26.15;54.58;100702.16;2102429;28;20081;-73
2022/07/18 02:06:26;;;;;;;12.20;3.50;;;;;;;26.14;54.63;100702.22;2103712;28;20175;-73
2022/07/18 02:07:49;;;;;;;9.55;3.47;;;;;;;26.11;54.28;100708.69;2094349;28;20072;-73
2022/07/18 02:09:12;;;;;;;13.90;4.43;;;;;;;26.12;54.40;100706.84;2099973;28;20048;-73
2022/07/18 02:10:35;;;;;;;14.02;3.85;;;;;;;26.11;54.40;100711.38;2102898;28;20658;-73
2022/07/18 02:11:56;;;;;;;8.05;2.85;;;;;;;26.11;54.56;100713.22;2105527;28;20043;-73
2022/07/18 02:13:20;;;;;;;11.23;4.13;;;;;;;26.11;54.23;100713.22;2094065;28;20075;-73
2022/07/18 02:14:41;;;;;;;10.88;3.97;;;;;;;26.10;54.42;100714.16;2099780;28;20083;-73
2022/07/18 02:16:04;;;;;;;10.13;4.00;;;;;;;26.10;54.10;100720.44;2102767;28;20075;-73
2022/07/18 02:17:25;;;;;;;9.48;3.70;;;;;;;26.08;54.10;100706.09;2094472;28;20394;-73
2022/07/18 02:18:48;;;;;;;7.95;3.60;;;;;;;26.08;54.22;100716.06;2099845;28;20048;-74
2022/07/18 02:20:13;;;;;;;17.00;3.97;;;;;;;26.08;54.02;100721.47;2102865;28;20673;-73
2022/07/18 02:21:37;;;;;;;11.15;3.97;;;;;;;26.06;54.14;100720.66;2104963;28;20040;-73
2022/07/18 02:23:00;;;;;;;10.40;3.67;;;;;;;26.05;53.91;100722.50;2102880;28;20044;-73
2022/07/18 02:24:22;;;;;;;7.57;3.83;;;;;;;26.06;54.11;100723.34;2105459;28;20079;-73
2022/07/18 02:25:45;;;;;;;13.98;4.45;;;;;;;26.06;53.75;100720.66;2102280;28;20568;-73
2022/07/18 02:27:06;;;;;;;12.70;4.35;;;;;;;26.04;53.74;100718.06;2102872;28;20067;-73
2022/07/18 02:28:29;;;;;;;5.95;3.08;;;;;;;26.04;53.79;100717.16;2102180;28;20060;-73
2022/07/18 02:29:50;;;;;;;16.40;4.25;;;;;;;26.05;54.03;100719.81;2102499;28;20071;-74
2022/07/18 02:31:13;;;;;;;3.88;2.63;;;;;;;26.06;53.97;100731.47;2102576;28;20406;-73
2022/07/18 02:32:37;;;;;;;12.10;3.53;;;;;;;26.04;53.92;100734.28;2102643;28;20075;-73
2022/07/18 02:33:58;;;;;;;8.18;3.35;;;;;;;26.05;53.79;100719.81;2102532;28;20048;-73
2022/07/18 02:35:21;;;;;;;10.93;4.22;;;;;;;26.05;53.74;100730.63;2102155;28;20105;-73
2022/07/18 02:36:43;;;;;;;10.07;3.45;;;;;;;26.06;53.92;100729.66;2094349;28;20154;-73
2022/07/18 02:38:06;;;;;;;11.65;3.75;;;;;;;26.08;53.90;100745.81;2099678;28;20185;-73
2022/07/18 02:39:28;;;;;;;10.43;4.28;;;;;;;26.08;53.60;100735.88;2105430;28;20052;-72
2022/07/18 02:40:51;;;;;;;8.73;4.38;;;;;;;26.07;53.91;100728.69;2102422;28;20150;-73
2022/07/18 02:42:12;;;;;;;11.05;3.88;;;;;;;26.08;53.91;100733.16;2102371;28;20071;-73
2022/07/18 02:43:35;;;;;;;11.60;4.13;;;;;;;26.08;53.90;100727.75;2102542;28;20521;-73
2022/07/18 02:44:58;;;;;;;9.88;3.30;;;;;;;26.07;53.62;100742.25;2102201;28;20044;-73
2022/07/18 02:46:20;;;;;;;14.82;3.83;;;;;;;26.06;53.68;100740.47;2096611;28;20135;-73
2022/07/18 02:47:43;;;;;;;10.27;3.50;;;;;;;26.03;53.86;100737.94;2100071;28;20061;-73
2022/07/18 02:49:04;;;;;;;9.90;3.90;;;;;;;26.02;54.05;100738.00;2101999;28;20096;-73
2022/07/18 02:50:27;;;;;;;16.25;3.30;;;;;;;26.00;54.07;100731.78;2105196;28;20056;-72
2022/07/18 02:51:50;;;;;;;14.63;3.47;;;;;;;26.00;54.04;100737.19;2102605;28;20072;-72
2022/07/18 02:53:13;;;;;;;16.10;4.45;;;;;;;25.99;54.12;100735.47;2094028;28;20501;-73
2022/07/18 02:54:36;;;;;;;10.13;3.47;;;;;;;25.98;54.25;100736.41;2099894;28;20133;-72
2022/07/18 02:55:58;;;;;;;8.82;4.10;;;;;;;25.97;53.90;100740.06;2102365;28;20048;-73
2022/07/18 02:57:20;;;;;;;12.50;3.75;;;;;;;25.97;54.33;100738.25;2102303;28;20067;-72
2022/07/18 02:58:43;;;;;;;10.65;3.60;;;;;;;25.97;54.18;100742.78;2104958;28;20082;-73
2022/07/18 03:00:09;;;;;;;10.07;3.53;;;;;;;25.96;54.19;100739.19;2105269;28;20039;-73
2022/07/18 03:01:30;;;;;;;8.32;3.15;;;;;;;25.97;53.99;100738.25;2104937;28;20048;-73
2022/07/18 03:02:53;;;;;;;10.65;3.75;;;;;;;25.96;54.19;100743.72;2093853;28;20106;-74
2022/07/18 03:04:15;;;;;;;9.20;3.85;;;;;;;25.95;54.16;100748.25;2099802;28;20056;-73
2022/07/18 03:05:37;;;;;;;12.55;3.45;;;;;;;25.93;54.19;100739.31;2102121;28;20537;-73
2022/07/18 03:07:01;;;;;;;7.32;3.40;;;;;;;25.92;54.11;100732.19;2104981;28;20048;-73
2022/07/18 03:08:23;;;;;;;12.27;3.88;;;;;;;25.92;54.18;100747.53;2110679;28;20040;-73
2022/07/18 03:09:46;;;;;;;13.90;4.40;;;;;;;25.91;54.15;100741.25;2113293;28;20056;-74
2022/07/18 03:11:07;;;;;;;10.65;3.85;;;;;;;25.93;54.05;100739.31;2107604;28;20071;-73
2022/07/18 03:12:30;;;;;;;6.35;3.03;;;;;;;25.93;54.28;100733.91;2113595;28;20058;-74
2022/07/18 03:13:51;;;;;;;8.02;3.53;;;;;;;25.95;54.10;100737.44;2107349;28;20077;-74
2022/07/18 03:15:14;;;;;;;12.20;3.67;;;;;;;25.96;54.06;100750.00;2113559;28;20441;-74
2022/07/18 03:16:35;;;;;;;9.88;3.47;;;;;;;25.97;54.14;100745.47;2107449;28;20049;-74
2022/07/18 03:17:58;;;;;;;;;;;;;;;25.95;54.00;100750.06;2105066;28;20078;-74
2022/07/18 03:19:20;;;;;;;13.93;4.00;;;;;;;25.93;54.03;100749.28;2102461;28;19920;-73
2022/07/18 03:20:43;;;;;;;9.82;3.60;;;;;;;25.93;53.97;100744.72;2102369;28;20051;-73
2022/07/18 03:22:07;;;;;;;12.82;3.38;;;;;;;25.94;54.02;100754.59;2102057;28;20043;-73
2022/07/18 03:23:29;;;;;;;10.70;3.58;;;;;;;25.94;54.12;100748.31;2104469;28;20142;-73
2022/07/18 03:24:51;;;;;;;10.50;4.20;;;;;;;25.94;53.98;100751.91;2110396;28;20055;-73
2022/07/18 03:26:13;;;;;;;10.10;3.03;;;;;;;25.96;53.99;100749.13;2110485;28;20120;-73
2022/07/18 03:27:36;;;;;;;7.97;3.78;;;;;;;25.96;53.92;100755.41;2110596;28;20535;-73
2022/07/18 03:28:57;;;;;;;7.60;2.75;;;;;;;25.97;54.03;100759.88;2110533;28;20043;-73
2022/07/18 03:30:19;;;;;;;7.97;3.35;;;;;;;25.98;53.80;100750.81;2110455;28;20078;-73
2022/07/18 03:31:42;;;;;;;11.07;3.30;;;;;;;25.99;53.84;100759.81;2110385;28;20055;-73
2022/07/18 03:33:05;;;;;;;11.45;4.53;;;;;;;26.00;53.74;100758.84;2110397;28;20130;-73
2022/07/18 03:34:27;;;;;;;6.15;3.03;;;;;;;26.00;53.74;100761.53;2110692;28;20147;-74
2022/07/18 03:35:49;;;;;;;10.88;3.53;;;;;;;26.03;54.03;100761.41;2110631;28;20058;-73
2022/07/18 03:37:13;;;;;;;11.30;3.75;;;;;;;26.06;53.51;100759.41;2110362;28;20040;-73
2022/07/18 03:38:36;;;;;;;8.45;3.05;;;;;;;26.10;53.41;100761.03;2110277;28;20150;-73
2022/07/18 03:39:59;;;;;;;11.10;3.35;;;;;;;26.18;53.50;100760.69;2110670;28;20059;-73
2022/07/18 03:41:20;;;;;;;10.15;2.85;;;;;;;26.24;53.24;100768.53;2110322;28;20043;-72
2022/07/18 03:42:43;;;;;;;10.43;3.70;;;;;;;26.29;53.13;100769.16;2110505;28;20093;-74
2022/07/18 03:44:05;;;;;;;10.60;4.05;;;;;;;26.35;52.69;100763.44;2113169;28;20058;-73
2022/07/18 03:45:28;;;;;;;11.02;3.40;;;;;;;26.42;52.39;100764.03;2112734;28;20611;-74
2022/07/18 03:46:51;;;;;;;12.23;2.90;;;;;;;26.48;52.25;100766.41;2110403;28;20047;-73
2022/07/18 03:48:14;;;;;;;9.35;2.97;;;;;;;26.55;52.05;100765.16;2109604;28;20051;-73
2022/07/18 03:49:36;;;;;;;12.60;3.25;;;;;;;26.61;51.86;100767.56;2102131;28;20040;-73
2022/07/18 03:50:57;;;;;;;8.90;3.20;;;;;;;26.68;51.80;100766.28;2102013;28;20040;-74
2022/07/18 03:52:21;;;;;;;10.68;3.03;;;;;;;26.75;51.62;100765.03;2101797;28;20189;-73
2022/07/18 03:53:44;;;;;;;11.85;3.30;;;;;;;26.83;51.54;100770.06;2102216;28;20047;-73
2022/07/18 03:55:06;;;;;;;6.22;3.10;;;;;;;26.90;51.37;100761.56;2093677;28;20159;-73
2022/07/18 03:56:28;;;;;;;10.23;3.08;;;;;;;26.99;51.28;100757.47;2102255;28;20525;-73
2022/07/18 03:57:51;;;;;;;14.25;3.10;;;;;;;27.10;51.13;100765.06;2104709;28;20048;-74
2022/07/18 03:59:13;;;;;;;7.20;3.03;;;;;;;27.18;50.84;100762.81;2105867;28;20044;-73
2022/07/18 04:00:35;;;;;;;10.02;3.03;;;;;;;27.24;50.68;100766.06;2106594;28;20048;-73
2022/07/18 04:01:58;;;;;;;10.93;3.30;;;;;;;27.32;50.71;100765.66;2106293;28;20055;-73
2022/07/18 04:03:20;;;;;;;9.25;3.00;;;;;;;27.41;50.57;100767.00;2103924;28;20055;-73
2022/07/18 04:04:43;;;;;;;9.75;3.10;;;;;;;27.50;50.50;100766.53;2098284;28;20078;-74
2022/07/18 04:06:04;;;;;;;8.38;3.10;;;;;;;27.59;50.36;100764.22;2092712;28;20112;-73
2022/07/18 04:07:29;;;;;;;11.68;3.42;;;;;;;27.69;50.24;100773.59;2100935;28;20113;-73
2022/07/18 04:08:51;;;;;;;10.35;2.88;;;;;;;27.80;50.06;100769.41;2103915;28;20072;-73
2022/07/18 04:10:13;;;;;;;9.02;2.58;;;;;;;27.91;49.85;100775.09;2103613;28;20135;-73
2022/07/18 04:11:35;;;;;;;7.25;2.42;;;;;;;28.00;49.63;100782.75;2106342;28;20051;-73
2022/07/18 04:12:57;;;;;;;8.60;2.42;;;;;;;28.09;49.38;100782.25;2097935;28;20131;-73
2022/07/18 04:14:19;;;;;;;10.30;2.85;;;;;;;28.18;48.98;100781.72;2103668;28;20114;-73
2022/07/18 04:15:41;;;;;;;6.95;2.75;;;;;;;28.23;48.37;100776.91;2103777;28;20535;-72
2022/07/18 04:17:03;;;;;;;;;;;;;;;28.26;48.16;100776.75;2104337;28;20036;-72
2022/07/18 04:18:26;;;;;;;9.80;2.40;;;;;;;28.34;48.02;100779.03;2095261;28;19928;-73
2022/07/18 04:19:47;;;;;;;8.68;2.63;;;;;;;28.44;47.73;100780.22;2101038;28;20052;-74
2022/07/18 04:21:09;;;;;;;10.93;2.75;;;;;;;28.53;47.42;100779.69;2103542;28;20143;-73
2022/07/18 04:22:44;;;;;;;8.98;2.92;;;;;;;28.65;47.21;100781.69;2103541;28;20056;-74
2022/07/18 04:24:07;;;;;;;5.80;2.25;;;;;;;28.78;47.14;100787.31;2113598;28;20675;-74
2022/07/18 04:25:32;;;;;;;9.57;3.08;;;;;;;28.91;46.77;100780.16;2111861;28;20147;-73
2022/07/18 04:26:55;;;;;;;9.13;2.92;;;;;;;29.05;46.73;100782.94;2112471;28;20083;-74
2022/07/18 04:28:16;;;;;;;13.80;2.63;;;;;;;29.22;46.59;100781.88;2103431;28;20517;-73
2022/07/18 04:29:39;;;;;;;8.68;2.15;;;;;;;29.37;46.30;100782.84;2111905;28;20138;-73
2022/07/18 04:31:02;;;;;;;7.75;2.33;;;;;;;29.51;45.83;100788.28;2111823;28;20579;-74
2022/07/18 04:32:23;;;;;;;9.95;2.65;;;;;;;29.63;45.48;100782.06;2114644;28;20501;-73
2022/07/18 04:33:45;;;;;;;8.05;3.00;;;;;;;29.76;45.04;100793.06;2111793;28;20078;-73
2022/07/18 04:35:08;;;;;;;7.88;2.50;;;;;;;29.87;44.93;100785.06;2111603;28;20051;-74
2022/07/18 04:36:30;;;;;;;7.68;2.53;;;;;;;29.97;44.60;100792.59;2111965;28;20054;-74
2022/07/18 04:37:53;;;;;;;10.57;2.58;;;;;;;30.14;44.66;100782.44;2111845;28;20684;-73
2022/07/18 04:39:16;;;;;;;8.82;2.60;;;;;;;30.27;43.96;100783.38;2114514;28;20524;-74
2022/07/18 04:40:39;;;;;;;7.40;2.85;;;;;;;30.41;43.53;100788.81;2112215;28;20074;-74
2022/07/18 04:42:02;;;;;;;11.43;3.08;;;;;;;30.53;42.78;100787.13;2111612;28;20078;-74
2022/07/18 04:43:25;;;;;;;7.95;2.47;;;;;;;30.65;42.52;100783.59;2111741;28;20048;-74
2022/07/18 04:44:47;;;;;;;5.93;2.25;;;;;;;30.78;41.86;100795.44;2112199;28;20178;-74
2022/07/18 04:46:10;;;;;;;7.03;2.50;;;;;;;30.91;41.06;100779.09;2114257;28;20047;-74
2022/07/18 04:47:31;;;;;;;10.52;2.45;;;;;;;30.96;40.89;100782.38;2111811;28;20105;-73
2022/07/18 04:48:54;;;;;;;7.45;2.30;;;;;;;31.08;40.99;100793.34;2103017;28;20063;-73
2022/07/18 04:50:15;;;;;;;7.95;3.08;;;;;;;31.27;40.61;100792.94;2100639;28;20139;-74
2022/07/18 04:51:38;;;;;;;9.32;2.65;;;;;;;31.48;40.32;100785.97;2108825;28;20078;-74
2022/07/18 04:53:02;;;;;;;12.57;3.00;;;;;;;31.57;40.16;100781.72;2103273;28;20445;-73
2022/07/18 04:54:23;;;;;;;6.82;2.28;;;;;;;31.65;39.96;100784.78;2109376;28;20059;-74
2022/07/18 04:55:46;;;;;;;10.43;2.97;;;;;;;31.75;40.16;100793.19;2114095;28;20078;-74
2022/07/18 04:57:08;;;;;;;10.52;2.30;;;;;;;31.92;39.68;100790.09;2111671;28;20102;-74
2022/07/18 04:58:31;;;;;;;5.55;2.58;;;;;;;32.05;39.19;100796.44;2111576;28;20048;-74
2022/07/18 04:59:52;;;;;;;8.00;2.80;;;;;;;32.24;39.12;100793.22;2111706;28;20103;-74
2022/07/18 05:01:15;;;;;;;9.25;2.70;;;;;;;32.47;38.82;100789.69;2111460;28;20039;-74
2022/07/18 05:02:40;;;;;;;8.05;2.40;;;;;;;32.70;38.12;100779.75;2105439;28;20055;-74
2022/07/18 05:04:03;;;;;;;9.23;2.80;;;;;;;32.86;37.88;100787.66;2109958;28;20035;-74
2022/07/18 05:05:27;;;;;;;7.40;2.10;;;;;;;33.04;37.78;100789.84;2111562;28;20047;-74
2022/07/18 05:06:50;;;;;;;7.45;2.25;;;;;;;33.26;37.13;100794.56;2111820;28;20079;-74
2022/07/18 05:08:14;;;;;;;7.05;2.05;;;;;;;33.41;36.76;100796.06;2111638;28;20047;-74
2022/07/18 05:09:36;;;;;;;8.48;2.30;;;;;;;33.51;36.24;100796.22;2113892;28;20090;-73
2022/07/18 05:10:59;;;;;;;6.55;2.40;;;;;;;33.52;35.70;100801.56;2111576;28;20058;-73
2022/07/18 05:12:23;;;;;;;9.82;2.40;;;;;;;33.47;35.54;100800.19;2111716;28;20035;-74
2022/07/18 05:13:45;;;;;;;10.88;2.17;;;;;;;33.62;35.39;100804.44;2111986;28;20146;-74
2022/07/18 05:15:09;;;;;;;7.65;2.03;;;;;;;33.92;34.95;100809.34;2111524;28;20842;-74
2022/07/18 05:16:32;;;;;;;8.55;2.65;;;;;;;34.08;34.82;100803.47;2111698;28;20066;-74
2022/07/18 05:17:55;;;;;;;12.98;3.33;;;;;;;34.25;34.46;100795.66;2111654;28;20078;-74
2022/07/18 05:19:18;;;;;;;11.50;2.50;;;;;;;34.37;33.85;100802.00;2094206;28;20049;-74
2022/07/18 05:20:41;;;;;;;11.05;2.80;;;;;;;34.38;33.74;100792.78;2100382;28;20520;-74
2022/07/18 05:22:03;;;;;;;6.78;2.28;;;;;;;34.56;33.46;100793.09;2103215;28;20463;-74
2022/07/18 05:23:27;;;;;;;5.75;2.30;;;;;;;34.59;33.41;100788.19;2094037;28;20068;-74
2022/07/18 05:24:50;;;;;;;5.68;1.95;;;;;;;34.77;33.31;100794.06;2098866;28;20536;-74
2022/07/18 05:26:12;;;;;;;8.95;2.28;;;;;;;35.02;33.09;100792.81;2102469;28;20044;-74
2022/07/18 05:27:36;;;;;;;5.80;2.05;;;;;;;35.11;32.90;100792.03;2102940;28;20423;-74
2022/07/18 05:28:59;;;;;;;11.05;2.70;;;;;;;35.14;32.71;100784.38;2102597;28;20457;-74
2022/07/18 05:30:23;;;;;;;6.97;2.58;;;;;;;35.27;32.81;100783.34;2102977;28;20040;-74
2022/07/18 05:31:44;;;;;;;8.45;2.55;;;;;;;35.19;32.35;100783.97;2103311;28;20533;-74
2022/07/18 05:33:07;;;;;;;9.90;2.60;;;;;;;35.24;32.60;100790.00;2102736;28;20529;-75
2022/07/18 05:34:29;;;;;;;8.35;2.40;;;;;;;35.31;32.36;100782.09;2102597;28;20078;-74
2022/07/18 05:35:52;;;;;;;8.50;2.50;;;;;;;35.18;32.51;100782.25;2102854;28;20063;-74
2022/07/18 05:37:13;;;;;;;8.73;2.45;;;;;;;35.02;32.53;100787.31;2102442;28;20036;-74
2022/07/18 05:38:37;;;;;;;;;;;;;;;34.97;32.90;100797.84;2103327;28;20044;-74
2022/07/18 05:39:59;;;;;;;5.65;1.92;;;;;;;35.12;32.63;100788.25;2103178;28;19923;-74
2022/07/18 05:41:21;;;;;;;10.02;2.55;;;;;;;35.19;32.53;100782.09;2094493;28;20049;-74
2022/07/18 05:42:44;;;;;;;11.82;2.20;;;;;;;35.34;32.38;100777.19;2100312;28;20036;-75
2022/07/18 05:44:06;;;;;;;5.85;2.00;;;;;;;35.45;32.32;100785.34;2102664;28;20079;-74
2022/07/18 05:45:29;;;;;;;13.73;2.50;;;;;;;35.41;32.17;100775.63;2102658;28;20078;-74
2022/07/18 05:46:51;;;;;;;12.38;2.72;;;;;;;35.56;32.11;100777.03;2102412;28;20493;-74
2022/07/18 05:48:13;;;;;;;7.43;2.05;;;;;;;35.65;31.89;100779.94;2110527;28;20054;-74
2022/07/18 05:49:36;;;;;;;8.90;2.00;;;;;;;35.77;31.43;100781.66;2111143;28;20052;-74
2022/07/18 05:50:58;;;;;;;8.90;2.30;;;;;;;35.92;31.70;100772.88;2110870;28;20043;-74
2022/07/18 05:52:19;;;;;;;9.68;2.40;;;;;;;36.14;31.62;100785.56;2110857;28;20520;-74
2022/07/18 05:53:43;;;;;;;8.63;2.13;;;;;;;36.31;31.00;100779.41;2102822;28;20067;-74
2022/07/18 05:55:08;;;;;;;10.43;2.28;;;;;;;36.36;31.05;100780.88;2108483;28;20443;-74
2022/07/18 05:56:30;;;;;;;10.18;2.67;;;;;;;36.26;30.99;100789.97;2111433;28;20044;-74
2022/07/18 05:57:53;;;;;;;8.75;2.50;;;;;;;36.20;31.21;100782.28;2110827;28;20056;-73
2022/07/18 05:59:16;;;;;;;7.05;2.20;;;;;;;36.29;31.23;100786.09;2110469;28;20047;-75
2022/07/18 06:00:39;;;;;;;7.13;2.20;;;;;;;36.41;31.10;100779.44;2110666;28;20087;-74
2022/07/18 06:02:02;;;;;;;6.78;2.60;;;;;;;36.50;30.98;100784.06;2111389;28;20063;-74
2022/07/18 06:03:23;;;;;;;8.77;2.20;;;;;;;36.54;30.58;100785.53;2113454;28;20047;-74
2022/07/18 06:04:46;;;;;;;7.45;2.25;;;;;;;36.42;30.80;100783.94;2110401;28;20047;-74
2022/07/18 06:06:08;;;;;;;4.30;2.17;;;;;;;36.38;30.63;100787.97;2110734;28;20663;-74
2022/07/18 06:07:30;;;;;;;;;;;;;;;36.24;30.71;100775.47;2111313;28;20036;-74
2022/07/18 06:08:53;;;;;;;;;;;;;;;36.24;30.90;100788.34;2102017;28;20022;-74
2022/07/18 06:10:16;;;;;;;9.13;2.40;;;;;;;36.37;30.90;100788.09;2110929;28;19926;-74
2022/07/18 06:11:38;;;;;;;9.23;2.40;;;;;;;36.46;30.91;100777.13;2110839;28;20408;-74
2022/07/18 06:13:00;;;;;;;8.88;2.70;;;;;;;36.56;30.90;100793.66;2101994;28;20432;-74
2022/07/18 06:14:23;;;;;;;5.38;1.98;;;;;;;36.61;30.61;100783.97;2107994;28;20052;-75
2022/07/18 06:15:46;;;;;;;8.32;2.80;;;;;;;36.47;30.72;100789.00;2099388;28;20035;-74
2022/07/18 06:17:09;;;;;;;9.63;2.47;;;;;;;36.37;30.75;100786.22;2103752;28;20092;-74
2022/07/18 06:18:31;;;;;;;7.55;2.20;;;;;;;36.48;30.90;100785.25;2109688;28;20071;-74
2022/07/18 06:19:53;;;;;;;9.35;2.70;;;;;;;36.63;30.44;100789.31;2109219;28;20422;-74
2022/07/18 06:21:16;;;;;;;8.13;3.15;;;;;;;36.70;30.33;100788.63;2109322;28;20526;-74
2022/07/18 06:22:39;;;;;;;9.90;2.08;;;;;;;36.80;30.39;100785.03;2110399;28;20040;-74
2022/07/18 06:24:03;;;;;;;9.43;2.80;;;;;;;36.95;30.11;100795.47;2109925;28;20460;-75
2022/07/18 06:25:25;;;;;;;13.88;3.22;;;;;;;36.86;29.70;100787.19;2110892;28;20117;-75